Time;durP1;ratioP1;P1;durP2;ratioP2;P2;SDS_P1;SDS_P2;PMS_P1;PMS_P2;Temp;Humidity;BMP_temperature;BMP_pressure;BME280_temperature;BME280_humidity;BME280_pressure;Samples;Min_cycle;Max_cycle;Signal;HPM_P1;HPM_P2
2022/03/14 00:00:59;;;;;;;11.00;6.55;;;3.50;68.80;;;;;;5051928;28;20617;-73
2022/03/14 00:03:25;;;;;;;11.13;6.85;;;3.30;70.20;;;;;;5052337;28;20104;-74
2022/03/14 00:05:52;;;;;;;10.75;5.53;;;3.30;70.40;;;;;;5053908;28;20028;-74
2022/03/14 00:08:19;;;;;;;9.90;5.43;;;3.30;70.50;;;;;;5051520;28;20116;-73
2022/03/14 00:10:45;;;;;;;10.50;5.45;;;3.20;70.80;;;;;;5049974;28;20032;-72
2022/03/14 00:13:16;;;;;;;11.25;5.88;;;3.00;71.00;;;;;;5058217;28;20024;-73
2022/03/14 00:15:42;;;;;;;8.10;4.22;;;3.00;71.50;;;;;;5046519;28;20033;-72
2022/03/14 00:18:08;;;;;;;9.68;4.97;;;3.10;71.20;;;;;;5043260;28;20033;-75
2022/03/14 00:20:33;;;;;;;11.23;6.40;;;3.10;71.40;;;;;;5054040;28;20112;-75
2022/03/14 00:22:59;;;;;;;14.10;6.45;;;3.00;71.00;;;;;;5055474;28;20037;-72
2022/03/14 00:25:26;;;;;;;12.88;5.97;;;3.10;71.10;;;;;;5051628;28;20029;-73
2022/03/14 00:27:53;;;;;;;11.65;6.68;;;3.20;70.70;;;;;;5051039;28;20124;-73
2022/03/14 00:30:19;;;;;;;11.70;6.03;;;3.30;70.00;;;;;;5057210;28;20112;-73
2022/03/14 00:32:46;;;;;;;13.23;5.63;;;3.30;70.30;;;;;;5057544;28;20120;-73
2022/03/14 00:35:11;;;;;;;11.88;5.80;;;3.20;70.00;;;;;;5057945;28;20036;-73
2022/03/14 00:37:38;;;;;;;12.65;6.00;;;3.20;70.00;;;;;;5061412;28;20090;-73
2022/03/14 00:40:07;;;;;;;11.27;5.82;;;3.10;70.10;;;;;;5058704;28;20063;-72
2022/03/14 00:42:35;;;;;;;12.68;6.35;;;3.00;70.60;;;;;;5051943;28;20052;-72
2022/03/14 00:45:00;;;;;;;10.65;5.13;;;3.10;70.50;;;;;;5055623;28;20036;-73
2022/03/14 00:47:28;;;;;;;8.82;5.55;;;3.00;70.70;;;;;;5055121;28;20106;-72
2022/03/14 00:49:53;;;;;;;10.93;5.28;;;3.00;70.60;;;;;;5053129;28;20470;-72
2022/03/14 00:52:19;;;;;;;13.05;6.22;;;3.10;70.50;;;;;;5053443;28;20029;-73
2022/03/14 00:54:45;;;;;;;10.55;5.22;;;3.10;70.50;;;;;;5050779;28;20037;-72
2022/03/14 00:57:11;;;;;;;13.40;6.57;;;3.10;70.40;;;;;;5054587;28;20152;-75
2022/03/14 00:59:39;;;;;;;12.32;6.57;;;3.10;70.60;;;;;;5049121;28;20552;-75
2022/03/14 01:02:04;;;;;;;10.20;5.65;;;3.10;70.20;;;;;;5053989;28;20036;-75
2022/03/14 01:04:30;;;;;;;10.18;5.82;;;3.30;69.60;;;;;;5059512;28;20194;-75
2022/03/14 01:06:56;;;;;;;12.30;5.88;;;3.40;69.30;;;;;;5052096;28;20037;-73
2022/03/14 01:09:22;;;;;;;12.00;6.18;;;3.30;69.50;;;;;;5051449;28;20124;-72
2022/03/14 01:11:47;;;;;;;10.50;6.10;;;3.20;69.90;;;;;;5057111;28;20144;-72
2022/03/14 01:14:13;;;;;;;13.60;5.70;;;3.00;70.60;;;;;;5053727;28;20399;-73
2022/03/14 01:16:40;;;;;;;10.00;5.43;;;3.00;70.50;;;;;;5049230;28;20491;-72
2022/03/14 01:19:11;;;;;;;11.25;5.90;;;2.80;70.90;;;;;;5053286;28;20047;-72
2022/03/14 01:21:38;;;;;;;12.82;7.13;;;2.80;71.30;;;;;;5054726;28;20042;-73
2022/03/14 01:24:05;;;;;;;15.35;6.13;;;2.80;71.30;;;;;;5051869;28;20032;-73
2022/03/14 01:26:32;;;;;;;11.50;5.97;;;2.90;71.70;;;;;;5048975;28;20509;-72
2022/03/14 01:28:58;;;;;;;12.70;6.82;;;2.90;71.90;;;;;;5049588;28;20037;-73
2022/03/14 01:31:24;;;;;;;11.32;5.47;;;2.90;71.20;;;;;;5037976;28;20033;-73
2022/03/14 01:33:49;;;;;;;15.68;7.15;;;2.90;71.60;;;;;;5045208;28;20403;-72
2022/03/14 01:36:15;;;;;;;10.93;4.82;;;3.00;71.60;;;;;;5048337;28;20032;-73
2022/03/14 01:38:40;;;;;;;10.60;5.43;;;3.10;71.40;;;;;;5053513;28;20117;-72
2022/03/14 01:41:06;;;;;;;10.18;5.97;;;3.20;71.40;;;;;;5055143;28;20034;-73
2022/03/14 01:43:32;;;;;;;11.75;5.65;;;3.20;71.10;;;;;;5054737;28;20036;-74
2022/03/14 01:45:58;;;;;;;10.82;6.32;;;3.20;70.80;;;;;;5052131;28;20118;-75
2022/03/14 01:48:25;;;;;;;9.90;6.20;;;3.30;70.40;;;;;;5046083;28;20052;-73
2022/03/14 01:50:52;;;;;;;11.80;5.90;;;3.40;70.70;;;;;;5047500;28;20103;-73
2022/03/14 01:53:19;;;;;;;11.55;6.22;;;3.50;70.70;;;;;;5051711;28;20119;-73
2022/03/14 01:55:46;;;;;;;9.68;5.53;;;3.50;71.70;;;;;;5049311;28;20501;-73
2022/03/14 01:58:13;;;;;;;11.18;5.25;;;3.60;71.10;;;;;;5056313;28;20441;-72
2022/03/14 02:00:39;;;;;;;11.48;5.47;;;3.60;71.10;;;;;;5056261;28;20055;-73
2022/03/14 02:03:05;;;;;;;8.95;5.65;;;3.60;71.60;;;;;;5056726;28;20028;-73
2022/03/14 02:05:37;;;;;;;10.70;5.50;;;3.60;71.60;;;;;;5051305;28;20320;-73
2022/03/14 02:08:05;;;;;;;10.05;6.13;;;3.70;70.90;;;;;;5050015;28;20036;-72
2022/03/14 02:10:31;;;;;;;11.52;5.88;;;3.70;71.30;;;;;;5050344;28;20033;-73
2022/03/14 02:12:56;;;;;;;12.23;6.63;;;3.70;71.70;;;;;;5054327;28;20029;-74
2022/03/14 02:15:22;;;;;;;12.82;6.50;;;3.80;72.00;;;;;;5052954;28;20110;-73
2022/03/14 02:17:48;;;;;;;10.98;5.90;;;3.80;72.90;;;;;;5052775;28;20103;-73
2022/03/14 02:20:13;;;;;;;12.90;6.30;;;3.70;73.70;;;;;;5053542;28;20028;-73
2022/03/14 02:22:39;;;;;;;13.77;6.57;;;3.70;74.30;;;;;;5053413;28;20044;-73
2022/03/14 02:25:10;;;;;;;11.30;6.82;;;3.80;74.60;;;;;;5047035;28;20574;-73
2022/03/14 02:27:37;;;;;;;11.68;5.85;;;3.90;75.00;;;;;;5060405;28;20124;-72
2022/03/14 02:30:03;;;;;;;11.55;6.45;;;3.90;74.40;;;;;;5045275;28;20148;-72
2022/03/14 02:32:29;;;;;;;11.88;6.57;;;3.90;74.20;;;;;;5057983;28;20044;-73
2022/03/14 02:34:55;;;;;;;12.02;6.22;;;3.90;74.80;;;;;;5048371;28;20383;-73
2022/03/14 02:37:21;;;;;;;10.80;6.38;;;3.80;74.70;;;;;;5055078;28;20497;-73
2022/03/14 02:39:47;;;;;;;11.13;5.40;;;3.70;73.00;;;;;;5050987;28;20021;-73
2022/03/14 02:42:13;;;;;;;9.70;5.85;;;3.80;72.40;;;;;;5049979;28;20043;-73
2022/03/14 02:44:47;;;;;;;10.80;5.70;;;3.90;72.40;;;;;;5049928;28;20134;-73
2022/03/14 02:47:13;;;;;;;12.77;6.45;;;3.80;73.30;;;;;;5049899;28;20033;-73
2022/03/14 02:49:39;;;;;;;10.82;6.00;;;3.80;73.50;;;;;;5056682;28;20522;-73
2022/03/14 02:52:06;;;;;;;9.80;6.07;;;3.80;73.50;;;;;;5052286;28;20521;-72
2022/03/14 02:54:31;;;;;;;11.65;7.68;;;3.60;75.30;;;;;;5053278;28;20107;-73
2022/03/14 02:56:57;;;;;;;12.00;6.43;;;3.50;75.70;;;;;;5053161;28;20111;-73
2022/03/14 02:59:23;;;;;;;10.50;5.80;;;3.50;75.90;;;;;;5047047;28;20197;-73
2022/03/14 03:01:48;;;;;;;9.98;5.60;;;3.50;75.70;;;;;;5050102;28;20076;-73
2022/03/14 03:04:15;;;;;;;10.48;6.20;;;3.60;74.00;;;;;;5052358;28;20035;-73
2022/03/14 03:06:41;;;;;;;10.18;5.78;;;3.80;73.70;;;;;;5036009;28;20029;-73
2022/03/14 03:09:06;;;;;;;12.23;6.60;;;3.80;73.60;;;;;;5053874;28;20544;-73
2022/03/14 03:11:33;;;;;;;10.65;6.47;;;3.80;73.10;;;;;;5050695;28;20107;-73
2022/03/14 03:14:00;;;;;;;10.07;5.85;;;3.80;75.40;;;;;;5055374;28;20032;-73
2022/03/14 03:16:26;;;;;;;14.25;6.82;;;3.60;76.20;;;;;;5044749;28;20128;-73
2022/03/14 03:18:52;;;;;;;12.93;6.50;;;3.50;76.70;;;;;;5050594;28;20028;-72
2022/03/14 03:21:18;;;;;;;13.20;6.43;;;3.50;76.50;;;;;;5049781;28;20029;-73
2022/03/14 03:23:44;;;;;;;13.73;6.45;;;3.50;76.40;;;;;;5052795;28;20088;-73
2022/03/14 03:26:10;;;;;;;13.95;6.50;;;3.40;76.60;;;;;;5048339;28;20491;-73
2022/03/14 03:28:35;;;;;;;10.35;6.38;;;3.60;76.80;;;;;;5053981;28;20029;-73
2022/03/14 03:31:06;;;;;;;13.02;6.70;;;3.50;77.50;;;;;;5049837;28;20032;-73
2022/03/14 03:33:33;;;;;;;11.10;7.05;;;3.60;76.20;;;;;;5053947;28;20025;-73
2022/03/14 03:35:58;;;;;;;11.98;6.13;;;3.60;76.20;;;;;;5059022;28;20028;-73
2022/03/14 03:38:24;;;;;;;15.80;7.22;;;3.50;76.10;;;;;;5049848;28;20043;-73
2022/03/14 03:40:50;;;;;;;13.07;6.85;;;3.60;75.80;;;;;;5051359;28;20045;-73
2022/03/14 03:43:16;;;;;;;11.20;6.60;;;3.60;76.20;;;;;;5052759;28;20383;-73
2022/03/14 03:45:41;;;;;;;11.00;6.93;;;3.60;76.60;;;;;;5051834;28;20478;-73
2022/03/14 03:48:07;;;;;;;11.68;6.43;;;3.70;76.70;;;;;;5051455;28;20122;-72
2022/03/14 03:50:33;;;;;;;11.02;6.25;;;3.70;75.90;;;;;;5043731;28;20500;-73
2022/03/14 03:52:58;;;;;;;11.10;6.80;;;3.70;76.20;;;;;;5056190;28;20450;-74
2022/03/14 03:55:24;;;;;;;11.18;6.15;;;3.70;75.90;;;;;;5052326;28;20086;-73
2022/03/14 03:57:50;;;;;;;12.98;6.10;;;3.70;75.70;;;;;;5055710;28;20387;-73
2022/03/14 04:00:16;;;;;;;13.50;7.00;;;3.70;76.20;;;;;;5056720;28;20059;-72
2022/03/14 04:02:44;;;;;;;13.95;7.53;;;3.60;76.60;;;;;;5058423;28;20033;-73
2022/03/14 04:05:11;;;;;;;11.68;6.60;;;3.60;76.90;;;;;;5043450;28;20033;-73
2022/03/14 04:07:40;;;;;;;10.20;6.05;;;3.60;75.50;;;;;;5054477;28;20032;-73
2022/03/14 04:10:06;;;;;;;13.55;6.18;;;3.60;76.20;;;;;;5047136;28;20029;-73
2022/03/14 04:12:32;;;;;;;12.27;6.30;;;3.60;76.50;;;;;;5045473;28;20058;-73
2022/03/14 04:14:58;;;;;;;10.82;6.40;;;3.60;77.10;;;;;;5045614;28;20036;-73
2022/03/14 04:17:25;;;;;;;13.00;6.22;;;3.60;77.70;;;;;;5052197;28;20111;-73
2022/03/14 04:19:52;;;;;;;12.15;5.80;;;3.60;77.10;;;;;;5039205;28;20024;-73
2022/03/14 04:22:19;;;;;;;11.95;6.28;;;3.70;76.10;;;;;;5047479;28;20028;-74
2022/03/14 04:24:45;;;;;;;11.68;6.32;;;3.80;75.80;;;;;;5048722;28;20037;-73
2022/03/14 04:27:11;;;;;;;14.65;7.35;;;3.80;76.50;;;;;;5052530;28;20438;-73
2022/03/14 04:29:37;;;;;;;12.13;6.72;;;3.80;76.70;;;;;;5053988;28;20041;-73
2022/03/14 04:32:03;;;;;;;9.80;5.57;;;3.70;77.00;;;;;;5049408;28;20180;-73
2022/03/14 04:34:28;;;;;;;12.90;7.78;;;3.60;77.20;;;;;;5050806;28;20667;-73
2022/03/14 04:36:54;;;;;;;16.05;7.30;;;3.50;77.80;;;;;;5045335;28;20068;-73
2022/03/14 04:39:20;;;;;;;11.13;6.20;;;3.50;77.70;;;;;;5053553;28;20037;-73
2022/03/14 04:41:47;;;;;;;12.40;6.63;;;3.60;77.80;;;;;;5041305;28;20395;-73
2022/03/14 04:44:13;;;;;;;11.98;6.35;;;3.60;77.40;;;;;;5047406;28;21027;-73
2022/03/14 04:46:39;;;;;;;12.30;6.93;;;3.80;77.50;;;;;;5046641;28;20624;-73
2022/03/14 04:49:04;;;;;;;9.25;5.75;;;3.80;78.50;;;;;;5046810;28;20047;-73
2022/03/14 04:51:33;;;;;;;12.48;7.35;;;3.90;78.90;;;;;;5050897;28;20037;-73
2022/03/14 04:53:59;;;;;;;11.32;6.15;;;3.90;78.50;;;;;;5047592;28;20123;-73
2022/03/14 04:56:25;;;;;;;13.00;6.07;;;3.90;78.40;;;;;;5044429;28;20108;-73
2022/03/14 04:58:52;;;;;;;13.73;6.85;;;3.80;77.30;;;;;;5050310;28;20032;-73
2022/03/14 05:01:22;;;;;;;11.02;6.72;;;3.80;76.60;;;;;;5044338;28;20515;-73
2022/03/14 05:03:48;;;;;;;11.27;6.03;;;3.80;76.80;;;;;;5043685;28;20043;-73
2022/03/14 05:06:14;;;;;;;13.45;7.28;;;3.90;77.30;;;;;;5043683;28;20029;-73
2022/03/14 05:08:39;;;;;;;9.90;6.10;;;3.80;77.50;;;;;;5046347;28;20118;-73
2022/03/14 05:11:06;;;;;;;14.40;6.40;;;3.80;77.30;;;;;;5042440;28;20065;-73
2022/03/14 05:13:31;;;;;;;13.10;6.95;;;3.80;77.80;;;;;;5046030;28;20467;-73
2022/03/14 05:15:57;;;;;;;12.68;6.60;;;3.60;78.40;;;;;;5039584;28;20068;-74
2022/03/14 05:18:23;;;;;;;13.63;7.07;;;3.50;78.50;;;;;;5049402;28;20033;-73
2022/03/14 05:20:48;;;;;;;13.63;7.32;;;3.50;78.60;;;;;;5041894;28;20030;-73
2022/03/14 05:23:14;;;;;;;11.95;6.40;;;3.60;78.90;;;;;;5045766;28;20029;-73
2022/03/14 05:25:40;;;;;;;16.27;7.80;;;3.60;78.10;;;;;;5044011;28;20103;-73
2022/03/14 05:28:05;;;;;;;10.55;6.15;;;3.70;78.50;;;;;;5044106;28;20041;-73
2022/03/14 05:30:31;;;;;;;14.30;7.00;;;3.60;79.10;;;;;;5045822;28;20037;-73
2022/03/14 05:32:57;;;;;;;11.70;6.72;;;3.50;79.30;;;;;;5041963;28;20036;-73
2022/03/14 05:35:23;;;;;;;11.40;6.47;;;3.50;80.00;;;;;;5048122;28;20068;-73
2022/03/14 05:37:48;;;;;;;15.90;6.78;;;3.50;79.10;;;;;;5043134;28;20102;-73
2022/03/14 05:40:17;;;;;;;10.50;6.32;;;3.50;78.70;;;;;;5048696;28;20093;-72
2022/03/14 05:42:45;;;;;;;11.43;6.90;;;3.60;78.40;;;;;;5046845;28;20406;-74
2022/03/14 05:45:12;;;;;;;12.07;6.82;;;3.70;78.30;;;;;;5044742;28;20523;-73
2022/03/14 05:47:38;;;;;;;13.07;7.47;;;3.70;78.80;;;;;;5048041;28;20036;-73
2022/03/14 05:50:04;;;;;;;12.32;7.38;;;3.60;79.40;;;;;;5043304;28;20045;-73
2022/03/14 05:52:30;;;;;;;13.20;7.32;;;3.60;78.80;;;;;;5049269;28;20445;-73
2022/03/14 05:54:56;;;;;;;15.02;7.07;;;3.50;79.10;;;;;;5049382;28;20060;-73
2022/03/14 05:57:22;;;;;;;14.05;7.78;;;3.50;78.90;;;;;;5042876;28;20592;-73
2022/03/14 05:59:48;;;;;;;14.45;7.90;;;3.60;79.20;;;;;;5042573;28;20025;-73
2022/03/14 06:02:24;;;;;;;13.02;7.88;;;3.40;80.20;;;;;;5033248;28;20394;-73
2022/03/14 06:04:51;;;;;;;12.75;6.50;;;3.30;80.30;;;;;;5037850;28;20394;-73
2022/03/14 06:07:19;;;;;;;12.38;7.22;;;3.40;79.90;;;;;;5034300;28;20495;-73
2022/03/14 06:09:49;;;;;;;15.38;7.45;;;3.40;79.80;;;;;;5042157;28;20130;-73
2022/03/14 06:12:29;;;;;;;12.80;6.45;;;3.40;79.70;;;;;;5038348;28;20037;-73
2022/03/14 06:14:56;;;;;;;11.15;6.63;;;3.50;79.10;;;;;;5037061;28;20553;-73
2022/03/14 06:17:22;;;;;;;15.00;7.13;;;3.60;78.90;;;;;;5036856;28;20041;-73
2022/03/14 06:19:49;;;;;;;13.68;7.13;;;3.70;79.80;;;;;;5039217;28;20089;-73
2022/03/14 06:22:19;;;;;;;11.32;6.63;;;3.80;80.10;;;;;;5040669;28;20041;-73
2022/03/14 06:24:47;;;;;;;16.10;7.93;;;3.90;79.90;;;;;;5048120;28;20044;-73
2022/03/14 06:27:18;;;;;;;13.18;7.55;;;3.90;80.60;;;;;;5046952;28;20082;-73
2022/03/14 06:29:44;;;;;;;14.48;6.88;;;4.00;80.30;;;;;;5041697;28;20052;-73
2022/03/14 06:32:11;;;;;;;13.15;7.45;;;4.10;80.40;;;;;;5045601;28;20055;-72
2022/03/14 06:34:37;;;;;;;11.70;6.32;;;4.20;79.10;;;;;;5047962;28;20033;-75
2022/03/14 06:37:06;;;;;;;12.82;7.35;;;4.30;79.60;;;;;;5035603;28;20028;-77
2022/03/14 06:39:32;;;;;;;13.05;7.05;;;4.30;80.70;;;;;;5032210;28;20020;-74
2022/03/14 06:41:58;;;;;;;14.40;7.28;;;4.20;80.40;;;;;;5039480;28;20403;-74
2022/03/14 06:44:29;;;;;;;13.15;6.47;;;4.40;81.40;;;;;;5043924;28;20049;-73
2022/03/14 06:46:55;;;;;;;14.73;7.53;;;4.50;80.20;;;;;;5044171;28;20025;-73
2022/03/14 06:49:21;;;;;;;11.25;6.97;;;4.50;79.30;;;;;;5041317;28;20045;-71
2022/03/14 06:51:47;;;;;;;17.88;9.90;;;4.40;78.60;;;;;;5042383;28;20565;-71
2022/03/14 06:54:14;;;;;;;17.92;10.43;;;4.40;79.30;;;;;;5042713;28;20032;-72
2022/03/14 06:56:42;;;;;;;16.90;9.60;;;4.50;79.40;;;;;;5039266;28;20040;-71
2022/03/14 06:59:07;;;;;;;22.30;9.63;;;4.60;79.40;;;;;;5030050;28;20037;-72
2022/03/14 07:01:34;;;;;;;18.70;9.65;;;4.60;79.10;;;;;;5032425;28;20487;-72
2022/03/14 07:04:00;;;;;;;16.52;8.90;;;4.50;79.40;;;;;;5031905;28;20029;-72
2022/03/14 07:06:25;;;;;;;16.90;8.25;;;4.30;80.20;;;;;;5036912;28;20098;-71
2022/03/14 07:08:51;;;;;;;16.35;9.23;;;4.20;80.00;;;;;;5029460;28;20041;-72
2022/03/14 07:11:17;;;;;;;19.92;9.48;;;4.10;79.80;;;;;;5026294;28;20719;-72
2022/03/14 07:13:42;;;;;;;15.60;9.00;;;4.00;80.20;;;;;;5033770;28;20080;-72
2022/03/14 07:16:08;;;;;;;16.48;8.40;;;4.00;80.00;;;;;;5041954;28;20135;-72
2022/03/14 07:18:34;;;;;;;18.17;8.50;;;3.90;80.00;;;;;;5047603;28;20036;-71
2022/03/14 07:21:00;;;;;;;16.65;8.32;;;3.80;80.40;;;;;;5046570;28;20028;-71
2022/03/14 07:23:26;;;;;;;15.57;8.32;;;3.80;80.80;;;;;;5047050;28;20108;-71
2022/03/14 07:25:52;;;;;;;16.92;8.10;;;3.90;81.50;;;;;;5045490;28;20478;-72
2022/03/14 07:28:18;;;;;;;14.52;7.97;;;4.00;81.30;;;;;;5047004;28;20127;-72
2022/03/14 07:30:44;;;;;;;16.48;8.00;;;4.10;80.40;;;;;;5039280;28;20040;-72
2022/03/14 07:33:10;;;;;;;21.50;8.55;;;4.20;79.90;;;;;;5039476;28;20640;-71
2022/03/14 07:35:36;;;;;;;18.67;8.73;;;4.20;80.30;;;;;;5049928;28;20037;-71
2022/03/14 07:38:03;;;;;;;14.82;8.10;;;4.20;80.30;;;;;;5045486;28;20084;-71
2022/03/14 07:40:29;;;;;;;15.18;8.02;;;4.10;80.70;;;;;;5046893;28;20068;-71
2022/03/14 07:42:58;;;;;;;73.75;12.15;;;4.10;80.30;;;;;;5029594;28;20064;-72
2022/03/14 07:45:24;;;;;;;31.15;9.07;;;4.20;79.60;;;;;;5047498;28;20036;-72
2022/03/14 07:47:51;;;;;;;23.65;9.73;;;4.20;80.20;;;;;;5051104;28;20037;-72
2022/03/14 07:50:19;;;;;;;20.38;10.02;;;4.20;80.40;;;;;;5046927;28;20513;-72
2022/03/14 07:52:47;;;;;;;17.50;9.75;;;4.20;80.90;;;;;;5046148;28;20038;-72
2022/03/14 07:55:13;;;;;;;18.10;9.70;;;4.20;81.50;;;;;;5046157;28;20041;-72
2022/03/14 07:57:41;;;;;;;17.17;9.40;;;4.20;81.20;;;;;;5044817;28;20037;-73
2022/03/14 08:00:11;;;;;;;18.23;10.05;;;4.20;80.80;;;;;;5053888;28;20036;-73
2022/03/14 08:02:38;;;;;;;15.57;8.98;;;4.30;80.50;;;;;;5043673;28;20416;-73
2022/03/14 08:05:08;;;;;;;18.27;9.55;;;4.40;79.70;;;;;;5042634;28;20540;-73
2022/03/14 08:07:34;;;;;;;15.00;8.45;;;4.50;80.00;;;;;;5045202;28;20029;-73
2022/03/14 08:10:01;;;;;;;13.57;7.85;;;4.60;79.40;;;;;;5047870;28;20063;-73
2022/03/14 08:12:26;;;;;;;13.85;7.95;;;4.60;78.70;;;;;;5043275;28;20064;-73
2022/03/14 08:14:52;;;;;;;17.58;7.57;;;4.70;78.00;;;;;;5041119;28;20056;-73
2022/03/14 08:17:18;;;;;;;16.90;7.97;;;4.80;77.70;;;;;;5041550;28;20032;-73
2022/03/14 08:19:46;;;;;;;17.52;7.93;;;4.90;77.80;;;;;;5041599;28;20056;-73
2022/03/14 08:22:12;;;;;;;15.25;8.75;;;4.90;78.00;;;;;;5034168;28;20032;-72
2022/03/14 08:24:38;;;;;;;17.80;8.32;;;4.90;78.50;;;;;;5035460;28;20091;-73
2022/03/14 08:27:04;;;;;;;19.30;9.38;;;5.00;78.80;;;;;;5039105;28;20021;-73
2022/03/14 08:29:31;;;;;;;16.17;10.35;;;5.20;78.60;;;;;;5036793;28;20509;-72
2022/03/14 08:32:00;;;;;;;17.40;10.20;;;5.20;78.70;;;;;;5045019;28;20039;-73
2022/03/14 08:34:27;;;;;;;19.67;8.63;;;5.30;78.60;;;;;;5047437;28;20028;-72
2022/03/14 08:36:52;;;;;;;19.17;8.63;;;5.40;78.30;;;;;;5040574;28;20040;-73
2022/03/14 08:39:18;;;;;;;15.20;7.72;;;5.40;78.00;;;;;;5039058;28;20523;-73
2022/03/14 08:41:44;;;;;;;15.05;7.55;;;5.50;78.00;;;;;;5046449;28;20478;-73
2022/03/14 08:44:10;;;;;;;16.15;8.15;;;5.40;76.90;;;;;;5036382;28;20501;-73
2022/03/14 08:46:38;;;;;;;14.38;8.18;;;5.40;77.00;;;;;;5035244;28;20051;-73
2022/03/14 08:49:03;;;;;;;18.65;8.73;;;5.30;76.40;;;;;;5038130;28;20398;-73
2022/03/14 08:51:29;;;;;;;15.15;8.70;;;5.30;76.60;;;;;;5038210;28;20036;-73
2022/03/14 08:53:55;;;;;;;13.77;8.40;;;5.40;76.80;;;;;;5041283;28;20112;-73
2022/03/14 08:56:20;;;;;;;16.10;8.57;;;5.40;76.50;;;;;;5039967;28;20546;-73
2022/03/14 08:58:47;;;;;;;16.70;8.60;;;5.50;77.20;;;;;;5044461;28;20128;-73
2022/03/14 09:01:13;;;;;;;18.33;8.52;;;5.60;77.20;;;;;;5043177;28;20067;-73
2022/03/14 09:03:39;;;;;;;14.60;8.38;;;5.60;77.30;;;;;;5043360;28;20116;-73
2022/03/14 09:06:06;;;;;;;13.27;7.90;;;5.70;76.80;;;;;;5042402;28;20123;-72
2022/03/14 09:08:32;;;;;;;16.02;7.57;;;5.80;76.20;;;;;;5037235;28;20057;-73
2022/03/14 09:11:00;;;;;;;15.30;8.68;;;5.70;75.80;;;;;;5041493;28;20017;-73
2022/03/14 09:13:26;;;;;;;13.40;8.32;;;5.80;76.30;;;;;;5042574;28;20663;-73
2022/03/14 09:15:52;;;;;;;13.63;7.85;;;5.90;76.60;;;;;;5043012;28;20040;-73
2022/03/14 09:18:18;;;;;;;14.80;8.48;;;6.10;76.70;;;;;;5044455;28;20029;-73
2022/03/14 09:20:46;;;;;;;15.82;8.65;;;6.20;76.00;;;;;;5042484;28;20025;-73
2022/03/14 09:23:12;;;;;;;13.73;7.97;;;6.30;76.20;;;;;;5045886;28;20032;-73
2022/03/14 09:25:37;;;;;;;13.68;8.13;;;6.40;76.40;;;;;;5044686;28;20033;-73
2022/03/14 09:28:03;;;;;;;13.00;7.63;;;6.40;76.30;;;;;;5040348;28;20581;-73
2022/03/14 09:30:29;;;;;;;13.95;6.65;;;6.50;76.60;;;;;;5043787;28;20036;-73
2022/03/14 09:32:55;;;;;;;17.33;8.93;;;6.50;75.80;;;;;;5048082;28;20974;-73
2022/03/14 09:35:23;;;;;;;14.80;8.80;;;6.50;76.20;;;;;;5044483;28;20086;-73
2022/03/14 09:37:49;;;;;;;15.55;8.48;;;6.60;76.30;;;;;;5044520;28;20120;-73
2022/03/14 09:40:19;;;;;;;14.50;7.60;;;6.70;76.30;;;;;;5043187;28;20075;-73
2022/03/14 09:42:48;;;;;;;15.23;9.30;;;7.00;75.60;;;;;;5044263;28;20043;-73
2022/03/14 09:45:14;;;;;;;18.20;9.32;;;7.10;74.80;;;;;;5043164;28;21140;-73
2022/03/14 09:47:44;;;;;;;14.98;8.73;;;7.20;74.40;;;;;;5043094;28;20036;-73
2022/03/14 09:50:23;;;;;;;14.48;8.43;;;7.30;74.10;;;;;;5046443;28;20860;-73
2022/03/14 09:52:49;;;;;;;17.13;8.90;;;7.60;74.40;;;;;;5048887;28;20072;-73
2022/03/14 09:55:16;;;;;;;16.55;8.98;;;7.60;74.90;;;;;;5043777;28;20028;-73
2022/03/14 09:57:42;;;;;;;19.38;10.35;;;7.60;74.30;;;;;;5043427;28;20041;-73
2022/03/14 10:00:13;;;;;;;25.23;9.43;;;7.70;74.80;;;;;;5038670;28;20129;-73
2022/03/14 10:02:39;;;;;;;14.43;8.98;;;7.90;75.10;;;;;;5034753;28;20033;-73
2022/03/14 10:05:08;;;;;;;14.13;8.77;;;8.00;74.30;;;;;;5032157;28;20032;-73
2022/03/14 10:07:35;;;;;;;17.10;8.80;;;8.20;74.10;;;;;;5036499;28;20040;-72
2022/03/14 10:10:04;;;;;;;14.38;8.60;;;8.20;73.90;;;;;;5042762;28;20055;-72
2022/03/14 10:12:30;;;;;;;22.65;9.63;;;8.30;73.60;;;;;;5043694;28;20537;-72
2022/03/14 10:14:56;;;;;;;16.33;10.07;;;8.10;73.30;;;;;;5045243;28;20106;-72
2022/03/14 10:17:22;;;;;;;18.00;8.90;;;8.10;73.60;;;;;;5041704;28;20067;-72
2022/03/14 10:19:56;;;;;;;17.75;8.98;;;8.10;73.00;;;;;;5043074;28;20171;-72
2022/03/14 10:22:22;;;;;;;13.90;8.43;;;8.00;72.70;;;;;;5043308;28;20032;-72
2022/03/14 10:24:53;;;;;;;15.77;9.15;;;8.20;73.80;;;;;;5043587;28;20025;-72
2022/03/14 10:27:21;;;;;;;19.15;9.55;;;8.50;73.40;;;;;;5041785;28;20117;-72
2022/03/14 10:29:47;;;;;;;15.85;9.18;;;8.60;72.20;;;;;;5042608;28;20618;-72
2022/03/14 10:32:34;;;;;;;15.73;8.38;;;8.50;71.60;;;;;;5045558;28;20036;-72
2022/03/14 10:35:04;;;;;;;19.40;8.82;;;8.50;71.70;;;;;;5038281;28;20029;-72
2022/03/14 10:37:31;;;;;;;15.15;9.65;;;8.90;72.60;;;;;;5048768;28;20032;-72
2022/03/14 10:40:03;;;;;;;17.02;9.07;;;9.10;72.00;;;;;;5045435;28;20036;-72
2022/03/14 10:42:40;;;;;;;13.65;8.18;;;9.20;70.50;;;;;;5044251;28;20107;-72
2022/03/14 10:45:19;;;;;;;14.98;9.38;;;9.40;70.80;;;;;;5042688;28;20025;-72
2022/03/14 10:47:45;;;;;;;14.60;8.82;;;9.60;70.30;;;;;;5043097;28;20709;-72
2022/03/14 10:50:37;;;;;;;15.93;8.85;;;9.70;70.30;;;;;;5049024;28;20063;-72
2022/03/14 10:53:21;;;;;;;14.25;8.98;;;9.70;70.90;;;;;;5046323;28;20155;-72
2022/03/14 10:55:56;;;;;;;14.87;8.10;;;9.50;69.70;;;;;;5040712;28;20025;-72
2022/03/14 10:58:33;;;;;;;20.30;8.90;;;9.50;70.30;;;;;;5044438;28;20033;-72
2022/03/14 11:01:02;;;;;;;16.10;8.75;;;9.80;70.90;;;;;;5046241;28;20393;-72
2022/03/14 11:03:33;;;;;;;14.73;8.52;;;9.90;70.80;;;;;;5042290;28;20488;-72
2022/03/14 11:06:01;;;;;;;17.27;8.77;;;9.70;70.00;;;;;;5036633;28;20032;-72
2022/03/14 11:08:33;;;;;;;14.05;8.57;;;9.90;70.20;;;;;;5030586;28;21018;-72
2022/03/14 11:11:01;;;;;;;15.65;9.50;;;10.10;70.40;;;;;;5031490;28;20028;-72
2022/03/14 11:13:27;;;;;;;13.32;8.82;;;10.40;69.50;;;;;;5034570;28;20040;-72
2022/03/14 11:15:53;;;;;;;17.65;10.25;;;10.20;69.20;;;;;;5038466;28;20063;-72
2022/03/14 11:18:19;;;;;;;15.70;8.85;;;10.50;70.00;;;;;;5037721;28;20055;-72
2022/03/14 11:20:46;;;;;;;15.25;9.02;;;10.60;68.80;;;;;;5042265;28;20475;-72
2022/03/14 11:23:14;;;;;;;15.15;9.63;;;10.70;68.10;;;;;;5036886;28;20120;-72
2022/03/14 11:25:44;;;;;;;23.80;12.43;;;10.90;68.00;;;;;;5047094;28;20032;-72
2022/03/14 11:28:13;;;;;;;15.75;9.23;;;10.90;68.70;;;;;;5050634;28;20021;-72
2022/03/14 11:30:42;;;;;;;15.93;8.65;;;10.90;68.40;;;;;;5045510;28;20029;-72
2022/03/14 11:33:08;;;;;;;14.07;6.85;;;11.00;68.80;;;;;;5048943;28;20059;-73
2022/03/14 11:35:34;;;;;;;13.30;8.15;;;11.00;68.10;;;;;;5047077;28;20033;-72
2022/03/14 11:38:01;;;;;;;14.63;8.75;;;11.20;69.10;;;;;;5054335;28;20398;-72
2022/03/14 11:40:27;;;;;;;16.40;9.07;;;11.30;68.90;;;;;;5052067;28;20032;-72
2022/03/14 11:42:53;;;;;;;15.07;8.30;;;11.20;68.20;;;;;;5054169;28;20483;-72
2022/03/14 11:45:19;;;;;;;16.02;9.63;;;11.50;69.40;;;;;;5053018;28;20031;-72
2022/03/14 11:47:46;;;;;;;17.20;9.18;;;11.30;67.90;;;;;;5050789;28;20651;-72
2022/03/14 11:50:14;;;;;;;16.95;9.27;;;11.20;68.70;;;;;;5053564;28;20033;-72
2022/03/14 11:52:43;;;;;;;13.88;9.05;;;11.50;70.20;;;;;;5046810;28;20430;-72
2022/03/14 11:55:24;;;;;;;14.57;9.40;;;11.60;69.10;;;;;;5047641;28;20083;-73
2022/03/14 11:57:50;;;;;;;15.55;9.05;;;11.50;69.40;;;;;;5048448;28;20633;-72
2022/03/14 12:00:21;;;;;;;16.52;8.93;;;11.60;69.10;;;;;;5050140;28;20048;-72
2022/03/14 12:02:53;;;;;;;12.70;8.10;;;11.50;68.10;;;;;;5049168;28;20083;-70
2022/03/14 12:05:24;;;;;;;14.30;8.63;;;11.30;68.60;;;;;;5049442;28;20087;-72
2022/03/14 12:07:51;;;;;;;13.55;9.25;;;11.30;68.30;;;;;;5056088;28;20099;-74
2022/03/14 12:10:27;;;;;;;15.02;9.40;;;11.30;68.20;;;;;;5044818;28;20361;-74
2022/03/14 12:12:53;;;;;;;17.23;10.10;;;11.40;68.80;;;;;;5044381;28;20103;-73
2022/03/14 12:15:44;;;;;;;16.20;8.13;;;11.90;68.70;;;;;;5046321;28;20120;-73
2022/03/14 12:18:25;;;;;;;13.70;9.23;;;12.30;68.00;;;;;;5045487;28;20028;-73
2022/03/14 12:21:32;;;;;;;13.02;8.10;;;12.20;68.40;;;;;;5038175;28;20096;-73
2022/03/14 12:23:58;;;;;;;16.35;9.90;;;12.40;69.00;;;;;;5042291;28;20035;-74
2022/03/14 12:26:25;;;;;;;12.57;8.98;;;12.30;68.30;;;;;;5049328;28;20115;-74
2022/03/14 12:28:53;;;;;;;16.52;8.77;;;12.20;68.20;;;;;;5046158;28;20033;-73
2022/03/14 12:31:19;;;;;;;13.90;8.70;;;12.40;69.50;;;;;;5042693;28;20029;-74
2022/03/14 12:33:47;;;;;;;15.85;9.30;;;12.40;69.90;;;;;;5045059;28;20029;-74
2022/03/14 12:36:19;;;;;;;14.75;8.60;;;12.30;69.20;;;;;;5045926;28;20115;-74
2022/03/14 12:39:06;;;;;;;16.92;8.73;;;12.50;69.80;;;;;;5035861;28;20032;-73
2022/03/14 12:41:32;;;;;;;12.63;9.27;;;12.70;69.70;;;;;;5024299;28;20508;-73
2022/03/14 12:43:58;;;;;;;13.13;8.70;;;12.80;70.00;;;;;;5037630;28;20028;-73
2022/03/14 12:46:25;;;;;;;14.38;8.70;;;12.60;69.70;;;;;;5042513;28;20033;-73